sensor_id;sensor_type;location;lat;lon;timestamp;temperature;humidity
28947;DHT22;16052;50.930;5.326;2023-05-10T00:01:29;14.70;99.90
28947;DHT22;16052;50.930;5.326;2023-05-10T00:03:55;14.70;99.90
28947;DHT22;16052;50.930;5.326;2023-05-10T00:06:21;14.70;99.90
28947;DHT22;16052;50.930;5.326;2023-05-10T00:08:47;14.80;99.90
28947;DHT22;16052;50.930;5.326;2023-05-10T00:11:13;14.80;99.90
28947;DHT22;16052;50.930;5.326;2023-05-10T00:13:38;14.70;99.90
28947;DHT22;16052;50.930;5.326;2023-05-10T00:16:04;14.70;99.90
28947;DHT22;16052;50.930;5.326;2023-05-10T00:18:30;14.80;99.90
28947;DHT22;16052;50.930;5.326;2023-05-10T00:20:56;14.70;99.90
28947;DHT22;16052;50.930;5.326;2023-05-10T00:23:22;14.70;99.90
28947;DHT22;16052;50.930;5.326;2023-05-10T00:25:47;14.70;99.90
28947;DHT22;16052;50.930;5.326;2023-05-10T00:28:13;14.70;99.90
28947;DHT22;16052;50.930;5.326;2023-05-10T00:30:39;14.70;99.90
28947;DHT22;16052;50.930;5.326;2023-05-10T00:33:05;14.80;99.90
28947;DHT22;16052;50.930;5.326;2023-05-10T00:35:30;14.70;99.90
28947;DHT22;16052;50.930;5.326;2023-05-10T00:37:56;14.70;99.90
28947;DHT22;16052;50.930;5.326;2023-05-10T00:40:22;14.80;99.90
28947;DHT22;16052;50.930;5.326;2023-05-10T00:42:48;14.80;99.90
28947;DHT22;16052;50.930;5.326;2023-05-10T00:45:13;14.70;99.90
28947;DHT22;16052;50.930;5.326;2023-05-10T00:47:39;14.70;99.90
28947;DHT22;16052;50.930;5.326;2023-05-10T00:50:06;14.40;99.90
28947;DHT22;16052;50.930;5.326;2023-05-10T00:52:32;14.30;99.90
28947;DHT22;16052;50.930;5.326;2023-05-10T00:54:58;14.30;99.90
28947;DHT22;16052;50.930;5.326;2023-05-10T00:57:24;14.20;99.90
28947;DHT22;16052;50.930;5.326;2023-05-10T00:59:50;14.20;99.90
28947;DHT22;16052;50.930;5.326;2023-05-10T01:02:16;14.30;99.90
28947;DHT22;16052;50.930;5.326;2023-05-10T01:04:43;14.30;99.90
28947;DHT22;16052;50.930;5.326;2023-05-10T01:07:08;14.40;99.90
28947;DHT22;16052;50.930;5.326;2023-05-10T01:09:34;14.40;99.90
28947;DHT22;16052;50.930;5.326;2023-05-10T01:12:01;14.40;99.90
28947;DHT22;16052;50.930;5.326;2023-05-10T01:14:28;14.30;99.90
28947;DHT22;16052;50.930;5.326;2023-05-10T01:16:54;14.30;99.90
28947;DHT22;16052;50.930;5.326;2023-05-10T01:19:26;14.20;99.90
28947;DHT22;16052;50.930;5.326;2023-05-10T01:36:48;14.30;99.90
28947;DHT22;16052;50.930;5.326;2023-05-10T01:42:10;14.30;99.90
28947;DHT22;16052;50.930;5.326;2023-05-10T01:47:40;14.20;99.90
28947;DHT22;16052;50.930;5.326;2023-05-10T01:50:11;14.10;99.90
28947;DHT22;16052;50.930;5.326;2023-05-10T01:52:47;14.20;99.90
28947;DHT22;16052;50.930;5.326;2023-05-10T01:55:16;14.20;99.90
28947;DHT22;16052;50.930;5.326;2023-05-10T01:57:44;14.20;99.90
28947;DHT22;16052;50.930;5.326;2023-05-10T02:00:18;14.20;99.90
28947;DHT22;16052;50.930;5.326;2023-05-10T02:02:48;14.30;99.90
28947;DHT22;16052;50.930;5.326;2023-05-10T02:05:15;14.20;99.90
28947;DHT22;16052;50.930;5.326;2023-05-10T02:07:43;14.20;99.90
28947;DHT22;16052;50.930;5.326;2023-05-10T02:10:10;14.20;99.90
28947;DHT22;16052;50.930;5.326;2023-05-10T02:12:41;14.20;99.90
28947;DHT22;16052;50.930;5.326;2023-05-10T02:15:11;14.30;99.90
28947;DHT22;16052;50.930;5.326;2023-05-10T02:17:37;14.10;99.90
28947;DHT22;16052;50.930;5.326;2023-05-10T02:20:06;14.00;99.90
28947;DHT22;16052;50.930;5.326;2023-05-10T02:22:33;14.10;99.90
28947;DHT22;16052;50.930;5.326;2023-05-10T02:25:01;14.10;99.90
28947;DHT22;16052;50.930;5.326;2023-05-10T02:27:29;14.10;99.90
28947;DHT22;16052;50.930;5.326;2023-05-10T02:29:56;14.10;99.90
28947;DHT22;16052;50.930;5.326;2023-05-10T02:32:25;14.20;99.90
28947;DHT22;16052;50.930;5.326;2023-05-10T02:34:52;14.30;99.90
28947;DHT22;16052;50.930;5.326;2023-05-10T02:37:20;14.20;99.90
28947;DHT22;16052;50.930;5.326;2023-05-10T02:39:49;14.20;99.90
28947;DHT22;16052;50.930;5.326;2023-05-10T02:42:20;14.10;99.90
28947;DHT22;16052;50.930;5.326;2023-05-10T02:44:50;14.20;99.90
28947;DHT22;16052;50.930;5.326;2023-05-10T02:47:18;14.30;99.90
28947;DHT22;16052;50.930;5.326;2023-05-10T02:49:45;14.30;99.90
28947;DHT22;16052;50.930;5.326;2023-05-10T02:52:15;14.40;99.90
28947;DHT22;16052;50.930;5.326;2023-05-10T02:54:45;14.40;99.90
28947;DHT22;16052;50.930;5.326;2023-05-10T02:57:17;14.40;99.90
28947;DHT22;16052;50.930;5.326;2023-05-10T02:59:45;14.50;99.90
28947;DHT22;16052;50.930;5.326;2023-05-10T03:02:14;14.40;99.90
28947;DHT22;16052;50.930;5.326;2023-05-10T03:04:39;14.30;99.90
28947;DHT22;16052;50.930;5.326;2023-05-10T03:07:05;14.30;99.90
28947;DHT22;16052;50.930;5.326;2023-05-10T03:09:32;14.30;99.90
28947;DHT22;16052;50.930;5.326;2023-05-10T03:15:00;14.30;99.90
28947;DHT22;16052;50.930;5.326;2023-05-10T03:18:09;14.30;99.90
28947;DHT22;16052;50.930;5.326;2023-05-10T03:20:41;14.40;99.90
28947;DHT22;16052;50.930;5.326;2023-05-10T03:25:38;14.30;99.90
28947;DHT22;16052;50.930;5.326;2023-05-10T03:28:05;14.30;99.90
28947;DHT22;16052;50.930;5.326;2023-05-10T03:30:31;14.20;99.90
28947;DHT22;16052;50.930;5.326;2023-05-10T03:32:57;14.30;99.90
28947;DHT22;16052;50.930;5.326;2023-05-10T03:35:24;14.30;99.90
28947;DHT22;16052;50.930;5.326;2023-05-10T03:37:50;14.30;99.90
28947;DHT22;16052;50.930;5.326;2023-05-10T03:40:15;14.30;99.90
28947;DHT22;16052;50.930;5.326;2023-05-10T03:42:42;14.30;99.90
28947;DHT22;16052;50.930;5.326;2023-05-10T03:45:08;14.30;99.90
28947;DHT22;16052;50.930;5.326;2023-05-10T03:47:34;14.40;99.90
28947;DHT22;16052;50.930;5.326;2023-05-10T03:50:00;14.30;99.90
28947;DHT22;16052;50.930;5.326;2023-05-10T03:52:26;14.30;99.90
28947;DHT22;16052;50.930;5.326;2023-05-10T03:54:51;14.10;99.90
28947;DHT22;16052;50.930;5.326;2023-05-10T03:57:17;14.20;99.90
28947;DHT22;16052;50.930;5.326;2023-05-10T03:59:43;14.20;99.90
28947;DHT22;16052;50.930;5.326;2023-05-10T04:02:09;14.30;99.90
28947;DHT22;16052;50.930;5.326;2023-05-10T04:04:34;14.30;99.90
28947;DHT22;16052;50.930;5.326;2023-05-10T04:07:00;14.20;99.90
28947;DHT22;16052;50.930;5.326;2023-05-10T04:09:26;14.10;99.90
28947;DHT22;16052;50.930;5.326;2023-05-10T04:11:51;13.90;99.90
28947;DHT22;16052;50.930;5.326;2023-05-10T04:14:17;13.90;99.90
28947;DHT22;16052;50.930;5.326;2023-05-10T04:16:42;13.80;99.90
28947;DHT22;16052;50.930;5.326;2023-05-10T04:19:08;13.90;99.90
28947;DHT22;16052;50.930;5.326;2023-05-10T04:21:34;13.90;99.90
28947;DHT22;16052;50.930;5.326;2023-05-10T04:23:59;14.00;99.90
28947;DHT22;16052;50.930;5.326;2023-05-10T04:26:25;14.10;99.90
28947;DHT22;16052;50.930;5.326;2023-05-10T04:28:51;14.20;99.90
28947;DHT22;16052;50.930;5.326;2023-05-10T04:31:16;14.10;99.90
28947;DHT22;16052;50.930;5.326;2023-05-10T04:33:42;14.10;99.90
28947;DHT22;16052;50.930;5.326;2023-05-10T04:36:08;14.10;99.90
28947;DHT22;16052;50.930;5.326;2023-05-10T04:38:34;14.10;99.90
28947;DHT22;16052;50.930;5.326;2023-05-10T04:41:09;14.10;99.90
28947;DHT22;16052;50.930;5.326;2023-05-10T04:43:36;14.10;99.90
28947;DHT22;16052;50.930;5.326;2023-05-10T04:46:02;14.00;99.90
28947;DHT22;16052;50.930;5.326;2023-05-10T04:48:29;14.00;99.90
28947;DHT22;16052;50.930;5.326;2023-05-10T04:50:55;14.00;99.90
28947;DHT22;16052;50.930;5.326;2023-05-10T04:53:22;14.00;99.90
28947;DHT22;16052;50.930;5.326;2023-05-10T04:55:47;13.90;99.90
28947;DHT22;16052;50.930;5.326;2023-05-10T04:58:14;13.80;99.90
28947;DHT22;16052;50.930;5.326;2023-05-10T05:00:39;13.70;99.90
28947;DHT22;16052;50.930;5.326;2023-05-10T05:03:05;13.60;99.90
28947;DHT22;16052;50.930;5.326;2023-05-10T05:05:31;13.50;99.90
28947;DHT22;16052;50.930;5.326;2023-05-10T05:07:57;13.60;99.90
28947;DHT22;16052;50.930;5.326;2023-05-10T05:10:22;13.60;99.90
28947;DHT22;16052;50.930;5.326;2023-05-10T05:12:48;13.50;99.90
28947;DHT22;16052;50.930;5.326;2023-05-10T05:15:14;13.60;99.90
28947;DHT22;16052;50.930;5.326;2023-05-10T05:17:42;13.50;99.90
28947;DHT22;16052;50.930;5.326;2023-05-10T05:20:09;13.60;99.90
28947;DHT22;16052;50.930;5.326;2023-05-10T05:22:38;13.60;99.90
28947;DHT22;16052;50.930;5.326;2023-05-10T05:25:05;13.60;99.90
28947;DHT22;16052;50.930;5.326;2023-05-10T05:27:31;13.50;99.90
28947;DHT22;16052;50.930;5.326;2023-05-10T05:29:57;13.60;99.90
28947;DHT22;16052;50.930;5.326;2023-05-10T05:32:24;13.60;99.90
28947;DHT22;16052;50.930;5.326;2023-05-10T05:34:51;13.60;99.90
28947;DHT22;16052;50.930;5.326;2023-05-10T05:37:18;13.70;99.90
28947;DHT22;16052;50.930;5.326;2023-05-10T05:39:45;13.60;99.90
28947;DHT22;16052;50.930;5.326;2023-05-10T05:42:12;13.60;99.90
28947;DHT22;16052;50.930;5.326;2023-05-10T05:44:38;13.60;99.90
28947;DHT22;16052;50.930;5.326;2023-05-10T05:47:04;13.70;99.90
28947;DHT22;16052;50.930;5.326;2023-05-10T05:49:30;13.70;99.90
28947;DHT22;16052;50.930;5.326;2023-05-10T05:52:03;13.70;99.90
28947;DHT22;16052;50.930;5.326;2023-05-10T05:54:30;13.80;99.90
28947;DHT22;16052;50.930;5.326;2023-05-10T05:57:00;13.80;99.90
28947;DHT22;16052;50.930;5.326;2023-05-10T05:59:26;13.80;99.90
28947;DHT22;16052;50.930;5.326;2023-05-10T06:01:52;13.90;99.90
28947;DHT22;16052;50.930;5.326;2023-05-10T06:04:18;13.90;99.90
28947;DHT22;16052;50.930;5.326;2023-05-10T06:06:44;13.90;99.90
28947;DHT22;16052;50.930;5.326;2023-05-10T06:09:11;13.90;99.90
28947;DHT22;16052;50.930;5.326;2023-05-10T06:11:37;13.90;99.90
28947;DHT22;16052;50.930;5.326;2023-05-10T06:14:04;13.90;99.90
28947;DHT22;16052;50.930;5.326;2023-05-10T06:16:30;14.00;99.90
28947;DHT22;16052;50.930;5.326;2023-05-10T06:18:56;14.10;99.90
28947;DHT22;16052;50.930;5.326;2023-05-10T06:21:22;14.10;99.90
28947;DHT22;16052;50.930;5.326;2023-05-10T06:23:48;14.10;99.90
28947;DHT22;16052;50.930;5.326;2023-05-10T06:26:15;14.10;99.90
28947;DHT22;16052;50.930;5.326;2023-05-10T06:28:40;14.10;99.90
28947;DHT22;16052;50.930;5.326;2023-05-10T06:31:06;14.00;99.90
28947;DHT22;16052;50.930;5.326;2023-05-10T06:33:33;14.00;99.90
28947;DHT22;16052;50.930;5.326;2023-05-10T06:35:59;14.00;99.90
28947;DHT22;16052;50.930;5.326;2023-05-10T06:38:24;13.90;99.90
28947;DHT22;16052;50.930;5.326;2023-05-10T06:40:50;14.00;99.90
28947;DHT22;16052;50.930;5.326;2023-05-10T06:43:16;14.00;99.90
28947;DHT22;16052;50.930;5.326;2023-05-10T06:45:43;14.00;99.90
28947;DHT22;16052;50.930;5.326;2023-05-10T06:48:09;14.00;99.90
28947;DHT22;16052;50.930;5.326;2023-05-10T06:50:35;14.00;99.90
28947;DHT22;16052;50.930;5.326;2023-05-10T06:53:00;14.00;99.90
28947;DHT22;16052;50.930;5.326;2023-05-10T06:55:27;14.00;99.90
28947;DHT22;16052;50.930;5.326;2023-05-10T06:57:53;14.00;99.90
28947;DHT22;16052;50.930;5.326;2023-05-10T07:00:20;13.90;99.90
28947;DHT22;16052;50.930;5.326;2023-05-10T07:02:46;13.90;99.90
28947;DHT22;16052;50.930;5.326;2023-05-10T07:05:12;13.90;99.90
28947;DHT22;16052;50.930;5.326;2023-05-10T07:07:38;13.90;99.90
28947;DHT22;16052;50.930;5.326;2023-05-10T07:10:04;14.00;99.90
28947;DHT22;16052;50.930;5.326;2023-05-10T07:12:30;14.00;99.90
28947;DHT22;16052;50.930;5.326;2023-05-10T07:14:56;14.00;99.90
28947;DHT22;16052;50.930;5.326;2023-05-10T07:17:21;14.00;99.90
28947;DHT22;16052;50.930;5.326;2023-05-10T07:19:48;14.10;99.90
28947;DHT22;16052;50.930;5.326;2023-05-10T07:22:15;14.10;99.90
28947;DHT22;16052;50.930;5.326;2023-05-10T07:24:41;14.00;99.90
28947;DHT22;16052;50.930;5.326;2023-05-10T07:27:06;14.00;99.90
28947;DHT22;16052;50.930;5.326;2023-05-10T07:29:32;14.00;99.90
28947;DHT22;16052;50.930;5.326;2023-05-10T07:31:58;14.00;99.90
28947;DHT22;16052;50.930;5.326;2023-05-10T07:34:24;14.00;99.90
28947;DHT22;16052;50.930;5.326;2023-05-10T07:36:50;13.90;99.90
28947;DHT22;16052;50.930;5.326;2023-05-10T07:39:16;14.00;99.90
28947;DHT22;16052;50.930;5.326;2023-05-10T07:41:42;14.00;99.90
28947;DHT22;16052;50.930;5.326;2023-05-10T07:44:07;14.00;99.90
28947;DHT22;16052;50.930;5.326;2023-05-10T07:46:34;14.00;99.90
28947;DHT22;16052;50.930;5.326;2023-05-10T07:49:01;14.10;99.90
28947;DHT22;16052;50.930;5.326;2023-05-10T07:51:27;14.10;99.90
28947;DHT22;16052;50.930;5.326;2023-05-10T07:53:54;14.20;99.90
28947;DHT22;16052;50.930;5.326;2023-05-10T07:56:29;14.20;99.90
28947;DHT22;16052;50.930;5.326;2023-05-10T07:59:00;14.20;99.90
28947;DHT22;16052;50.930;5.326;2023-05-10T08:01:29;14.20;99.90
28947;DHT22;16052;50.930;5.326;2023-05-10T08:03:55;14.10;99.90
28947;DHT22;16052;50.930;5.326;2023-05-10T08:06:22;14.20;99.90
28947;DHT22;16052;50.930;5.326;2023-05-10T08:08:48;14.20;99.90
28947;DHT22;16052;50.930;5.326;2023-05-10T08:11:19;14.10;99.90
28947;DHT22;16052;50.930;5.326;2023-05-10T08:13:47;13.90;99.90
28947;DHT22;16052;50.930;5.326;2023-05-10T08:16:13;13.70;99.90
28947;DHT22;16052;50.930;5.326;2023-05-10T08:18:39;13.60;99.90
28947;DHT22;16052;50.930;5.326;2023-05-10T08:21:06;13.50;99.90
28947;DHT22;16052;50.930;5.326;2023-05-10T08:23:35;13.50;99.90
28947;DHT22;16052;50.930;5.326;2023-05-10T08:26:01;13.50;99.90
28947;DHT22;16052;50.930;5.326;2023-05-10T08:28:28;13.50;99.90
28947;DHT22;16052;50.930;5.326;2023-05-10T08:30:55;13.40;99.90
28947;DHT22;16052;50.930;5.326;2023-05-10T08:33:21;13.40;99.90
28947;DHT22;16052;50.930;5.326;2023-05-10T08:35:49;13.30;99.90
28947;DHT22;16052;50.930;5.326;2023-05-10T08:38:15;13.20;99.90
28947;DHT22;16052;50.930;5.326;2023-05-10T08:40:42;13.30;99.90
28947;DHT22;16052;50.930;5.326;2023-05-10T08:43:12;13.20;99.90
28947;DHT22;16052;50.930;5.326;2023-05-10T08:45:40;13.10;99.90
28947;DHT22;16052;50.930;5.326;2023-05-10T08:48:07;13.20;99.90
28947;DHT22;16052;50.930;5.326;2023-05-10T08:50:38;13.20;99.90
28947;DHT22;16052;50.930;5.326;2023-05-10T08:53:06;13.30;99.90
28947;DHT22;16052;50.930;5.326;2023-05-10T08:55:34;13.30;99.90
28947;DHT22;16052;50.930;5.326;2023-05-10T08:58:03;13.30;99.90
28947;DHT22;16052;50.930;5.326;2023-05-10T09:00:36;13.20;99.90
28947;DHT22;16052;50.930;5.326;2023-05-10T09:03:05;13.20;99.90
28947;DHT22;16052;50.930;5.326;2023-05-10T09:05:32;13.20;99.90
28947;DHT22;16052;50.930;5.326;2023-05-10T09:07:58;13.30;99.90
28947;DHT22;16052;50.930;5.326;2023-05-10T09:10:30;13.30;99.90
28947;DHT22;16052;50.930;5.326;2023-05-10T09:12:58;13.30;99.90
28947;DHT22;16052;50.930;5.326;2023-05-10T09:15:24;13.40;99.90
28947;DHT22;16052;50.930;5.326;2023-05-10T09:17:50;13.50;99.90
28947;DHT22;16052;50.930;5.326;2023-05-10T09:20:16;13.50;99.90
28947;DHT22;16052;50.930;5.326;2023-05-10T09:22:43;13.50;99.90
28947;DHT22;16052;50.930;5.326;2023-05-10T09:25:12;13.50;99.90
28947;DHT22;16052;50.930;5.326;2023-05-10T09:27:39;13.40;99.90
28947;DHT22;16052;50.930;5.326;2023-05-10T09:30:07;13.40;99.90
28947;DHT22;16052;50.930;5.326;2023-05-10T09:32:41;13.40;99.90
28947;DHT22;16052;50.930;5.326;2023-05-10T09:35:28;13.50;99.90
28947;DHT22;16052;50.930;5.326;2023-05-10T09:38:00;13.60;99.90
28947;DHT22;16052;50.930;5.326;2023-05-10T09:40:28;13.60;99.90
28947;DHT22;16052;50.930;5.326;2023-05-10T09:43:06;13.70;99.90
28947;DHT22;16052;50.930;5.326;2023-05-10T09:45:38;13.60;99.90
28947;DHT22;16052;50.930;5.326;2023-05-10T09:48:08;13.60;99.90
28947;DHT22;16052;50.930;5.326;2023-05-10T09:50:36;13.70;99.90
28947;DHT22;16052;50.930;5.326;2023-05-10T09:53:05;13.70;99.90
28947;DHT22;16052;50.930;5.326;2023-05-10T09:55:45;13.70;99.90
28947;DHT22;16052;50.930;5.326;2023-05-10T09:58:12;13.80;99.90
28947;DHT22;16052;50.930;5.326;2023-05-10T10:00:42;13.90;99.90
28947;DHT22;16052;50.930;5.326;2023-05-10T10:03:13;13.90;99.90
28947;DHT22;16052;50.930;5.326;2023-05-10T10:05:41;13.80;99.90
28947;DHT22;16052;50.930;5.326;2023-05-10T10:08:12;13.80;99.90
28947;DHT22;16052;50.930;5.326;2023-05-10T10:10:39;13.90;99.90
28947;DHT22;16052;50.930;5.326;2023-05-10T10:13:10;13.90;99.90
28947;DHT22;16052;50.930;5.326;2023-05-10T10:15:37;13.90;99.90
28947;DHT22;16052;50.930;5.326;2023-05-10T10:18:04;13.80;99.90
28947;DHT22;16052;50.930;5.326;2023-05-10T10:20:31;13.90;99.90
28947;DHT22;16052;50.930;5.326;2023-05-10T10:22:57;13.90;99.90
28947;DHT22;16052;50.930;5.326;2023-05-10T10:25:23;13.90;99.90
28947;DHT22;16052;50.930;5.326;2023-05-10T10:29:06;13.90;99.90
28947;DHT22;16052;50.930;5.326;2023-05-10T10:30:56;13.90;99.90
28947;DHT22;16052;50.930;5.326;2023-05-10T10:36:09;13.90;99.90
28947;DHT22;16052;50.930;5.326;2023-05-10T10:38:57;13.90;99.90
28947;DHT22;16052;50.930;5.326;2023-05-10T10:47:10;13.90;99.90
28947;DHT22;16052;50.930;5.326;2023-05-10T10:50:03;14.00;99.90
28947;DHT22;16052;50.930;5.326;2023-05-10T10:57:53;14.00;99.90
28947;DHT22;16052;50.930;5.326;2023-05-10T11:00:30;14.00;99.90
28947;DHT22;16052;50.930;5.326;2023-05-10T11:08:29;14.00;99.90
28947;DHT22;16052;50.930;5.326;2023-05-10T11:13:31;14.10;99.90
28947;DHT22;16052;50.930;5.326;2023-05-10T11:16:19;14.10;99.90
28947;DHT22;16052;50.930;5.326;2023-05-10T11:19:15;14.10;99.90
28947;DHT22;16052;50.930;5.326;2023-05-10T11:24:38;14.10;99.90
28947;DHT22;16052;50.930;5.326;2023-05-10T11:27:05;14.10;99.90
28947;DHT22;16052;50.930;5.326;2023-05-10T11:29:32;14.20;99.90
28947;DHT22;16052;50.930;5.326;2023-05-10T11:31:59;14.20;99.90
28947;DHT22;16052;50.930;5.326;2023-05-10T11:34:28;14.20;99.90
28947;DHT22;16052;50.930;5.326;2023-05-10T11:36:57;14.20;99.90
28947;DHT22;16052;50.930;5.326;2023-05-10T11:39:28;14.30;99.90
28947;DHT22;16052;50.930;5.326;2023-05-10T11:41:54;14.30;99.90
28947;DHT22;16052;50.930;5.326;2023-05-10T11:44:28;14.30;99.90
28947;DHT22;16052;50.930;5.326;2023-05-10T11:46:54;14.40;99.90
28947;DHT22;16052;50.930;5.326;2023-05-10T11:49:23;14.30;99.90
28947;DHT22;16052;50.930;5.326;2023-05-10T11:51:53;14.40;99.90
28947;DHT22;16052;50.930;5.326;2023-05-10T11:54:18;14.50;99.90
28947;DHT22;16052;50.930;5.326;2023-05-10T11:56:45;14.60;99.90
28947;DHT22;16052;50.930;5.326;2023-05-10T11:59:14;14.50;99.90
28947;DHT22;16052;50.930;5.326;2023-05-10T12:01:41;14.50;99.90
28947;DHT22;16052;50.930;5.326;2023-05-10T12:04:07;14.50;99.90
28947;DHT22;16052;50.930;5.326;2023-05-10T12:06:37;14.60;99.90
28947;DHT22;16052;50.930;5.326;2023-05-10T12:09:08;14.60;99.90
28947;DHT22;16052;50.930;5.326;2023-05-10T12:11:37;14.70;99.90
28947;DHT22;16052;50.930;5.326;2023-05-10T12:14:05;14.70;99.90
28947;DHT22;16052;50.930;5.326;2023-05-10T12:16:32;14.70;99.90
28947;DHT22;16052;50.930;5.326;2023-05-10T12:18:59;14.70;99.90
28947;DHT22;16052;50.930;5.326;2023-05-10T12:21:26;14.70;99.90
28947;DHT22;16052;50.930;5.326;2023-05-10T12:23:59;14.70;99.90
28947;DHT22;16052;50.930;5.326;2023-05-10T12:26:32;14.60;99.90
28947;DHT22;16052;50.930;5.326;2023-05-10T12:29:17;14.70;99.90
28947;DHT22;16052;50.930;5.326;2023-05-10T12:31:53;14.70;99.90
28947;DHT22;16052;50.930;5.326;2023-05-10T12:34:37;14.80;99.90
28947;DHT22;16052;50.930;5.326;2023-05-10T12:37:04;14.90;99.90
28947;DHT22;16052;50.930;5.326;2023-05-10T12:39:44;14.90;99.90
28947;DHT22;16052;50.930;5.326;2023-05-10T12:42:14;15.00;99.90
28947;DHT22;16052;50.930;5.326;2023-05-10T12:44:40;15.00;99.90
28947;DHT22;16052;50.930;5.326;2023-05-10T12:47:06;15.10;99.90
28947;DHT22;16052;50.930;5.326;2023-05-10T12:49:33;15.20;99.90
28947;DHT22;16052;50.930;5.326;2023-05-10T12:51:59;15.20;99.90
28947;DHT22;16052;50.930;5.326;2023-05-10T12:54:25;15.20;99.90
28947;DHT22;16052;50.930;5.326;2023-05-10T12:56:54;15.10;99.90
28947;DHT22;16052;50.930;5.326;2023-05-10T12:59:20;15.10;99.90
28947;DHT22;16052;50.930;5.326;2023-05-10T13:01:45;15.00;99.90
28947;DHT22;16052;50.930;5.326;2023-05-10T13:04:11;15.00;99.90
28947;DHT22;16052;50.930;5.326;2023-05-10T13:06:37;15.00;99.90
28947;DHT22;16052;50.930;5.326;2023-05-10T13:09:03;15.10;99.90
28947;DHT22;16052;50.930;5.326;2023-05-10T13:11:31;15.00;99.90
28947;DHT22;16052;50.930;5.326;2023-05-10T13:13:58;15.00;99.90
28947;DHT22;16052;50.930;5.326;2023-05-10T13:16:23;15.00;99.90
28947;DHT22;16052;50.930;5.326;2023-05-10T13:18:50;15.20;99.90
28947;DHT22;16052;50.930;5.326;2023-05-10T13:21:19;15.20;99.90
28947;DHT22;16052;50.930;5.326;2023-05-10T13:23:45;15.20;99.90
28947;DHT22;16052;50.930;5.326;2023-05-10T13:26:12;15.30;99.90
28947;DHT22;16052;50.930;5.326;2023-05-10T13:28:37;15.40;99.90
28947;DHT22;16052;50.930;5.326;2023-05-10T13:31:04;15.40;99.90
28947;DHT22;16052;50.930;5.326;2023-05-10T13:33:30;15.40;99.90
28947;DHT22;16052;50.930;5.326;2023-05-10T13:35:56;15.50;99.90
28947;DHT22;16052;50.930;5.326;2023-05-10T13:38:21;15.50;99.90
28947;DHT22;16052;50.930;5.326;2023-05-10T13:40:47;15.50;99.90
28947;DHT22;16052;50.930;5.326;2023-05-10T13:43:13;15.50;99.90
28947;DHT22;16052;50.930;5.326;2023-05-10T13:45:39;15.50;99.90
28947;DHT22;16052;50.930;5.326;2023-05-10T13:48:06;15.70;99.90
28947;DHT22;16052;50.930;5.326;2023-05-10T13:50:32;15.70;99.90
28947;DHT22;16052;50.930;5.326;2023-05-10T13:52:58;15.70;99.90
28947;DHT22;16052;50.930;5.326;2023-05-10T13:55:24;15.80;99.90
28947;DHT22;16052;50.930;5.326;2023-05-10T13:57:50;15.70;99.90
28947;DHT22;16052;50.930;5.326;2023-05-10T14:00:16;15.60;99.90
28947;DHT22;16052;50.930;5.326;2023-05-10T14:02:42;15.50;99.90
28947;DHT22;16052;50.930;5.326;2023-05-10T14:05:09;15.60;99.90
28947;DHT22;16052;50.930;5.326;2023-05-10T14:07:34;15.60;99.90
28947;DHT22;16052;50.930;5.326;2023-05-10T14:10:00;15.70;99.90
28947;DHT22;16052;50.930;5.326;2023-05-10T14:12:27;15.70;99.90
28947;DHT22;16052;50.930;5.326;2023-05-10T14:14:53;15.60;99.90
28947;DHT22;16052;50.930;5.326;2023-05-10T14:17:18;15.60;99.90
28947;DHT22;16052;50.930;5.326;2023-05-10T14:19:44;15.70;99.90
28947;DHT22;16052;50.930;5.326;2023-05-10T14:22:10;15.70;99.90
28947;DHT22;16052;50.930;5.326;2023-05-10T14:24:36;15.70;99.90
28947;DHT22;16052;50.930;5.326;2023-05-10T14:27:03;15.70;99.90
28947;DHT22;16052;50.930;5.326;2023-05-10T14:29:28;15.80;99.90
28947;DHT22;16052;50.930;5.326;2023-05-10T14:31:54;15.70;99.90
28947;DHT22;16052;50.930;5.326;2023-05-10T14:34:21;15.70;99.90
28947;DHT22;16052;50.930;5.326;2023-05-10T14:36:47;15.70;99.90
28947;DHT22;16052;50.930;5.326;2023-05-10T14:39:13;15.70;99.90
28947;DHT22;16052;50.930;5.326;2023-05-10T14:41:42;15.70;99.90
28947;DHT22;16052;50.930;5.326;2023-05-10T14:44:10;15.70;99.90
28947;DHT22;16052;50.930;5.326;2023-05-10T14:46:35;15.80;99.90
28947;DHT22;16052;50.930;5.326;2023-05-10T14:49:01;15.90;99.90
28947;DHT22;16052;50.930;5.326;2023-05-10T14:51:28;16.00;99.90
28947;DHT22;16052;50.930;5.326;2023-05-10T14:53:53;16.10;99.90
28947;DHT22;16052;50.930;5.326;2023-05-10T14:56:20;16.20;99.90
28947;DHT22;16052;50.930;5.326;2023-05-10T14:58:46;16.20;99.90
28947;DHT22;16052;50.930;5.326;2023-05-10T15:01:12;16.10;99.90
28947;DHT22;16052;50.930;5.326;2023-05-10T15:03:38;16.20;99.90
28947;DHT22;16052;50.930;5.326;2023-05-10T15:06:04;16.20;99.90
28947;DHT22;16052;50.930;5.326;2023-05-10T15:08:30;16.20;99.90
28947;DHT22;16052;50.930;5.326;2023-05-10T15:10:57;16.30;99.90
28947;DHT22;16052;50.930;5.326;2023-05-10T15:13:23;16.30;99.90
28947;DHT22;16052;50.930;5.326;2023-05-10T15:15:50;16.30;99.90
28947;DHT22;16052;50.930;5.326;2023-05-10T15:18:18;16.20;99.90
28947;DHT22;16052;50.930;5.326;2023-05-10T15:20:47;16.10;99.90
28947;DHT22;16052;50.930;5.326;2023-05-10T15:23:12;16.20;99.90
28947;DHT22;16052;50.930;5.326;2023-05-10T15:25:38;16.20;99.90
28947;DHT22;16052;50.930;5.326;2023-05-10T15:28:05;16.20;99.90
28947;DHT22;16052;50.930;5.326;2023-05-10T15:30:30;16.10;99.90
28947;DHT22;16052;50.930;5.326;2023-05-10T15:32:56;16.20;99.90
28947;DHT22;16052;50.930;5.326;2023-05-10T15:35:23;16.20;99.90
28947;DHT22;16052;50.930;5.326;2023-05-10T15:37:49;16.20;99.90
28947;DHT22;16052;50.930;5.326;2023-05-10T15:40:15;16.30;99.90
28947;DHT22;16052;50.930;5.326;2023-05-10T15:42:41;16.50;99.90
28947;DHT22;16052;50.930;5.326;2023-05-10T15:45:07;16.50;99.90
28947;DHT22;16052;50.930;5.326;2023-05-10T15:47:34;16.60;99.90
28947;DHT22;16052;50.930;5.326;2023-05-10T15:49:59;16.70;99.90
28947;DHT22;16052;50.930;5.326;2023-05-10T15:52:25;16.80;99.90
28947;DHT22;16052;50.930;5.326;2023-05-10T15:54:53;16.80;99.90
28947;DHT22;16052;50.930;5.326;2023-05-10T15:57:20;16.80;99.90
28947;DHT22;16052;50.930;5.326;2023-05-10T15:59:46;16.80;99.90
28947;DHT22;16052;50.930;5.326;2023-05-10T16:02:12;16.80;99.90
28947;DHT22;16052;50.930;5.326;2023-05-10T16:04:39;16.80;99.90
28947;DHT22;16052;50.930;5.326;2023-05-10T16:07:05;16.90;99.90
28947;DHT22;16052;50.930;5.326;2023-05-10T16:09:31;16.80;99.90
28947;DHT22;16052;50.930;5.326;2023-05-10T16:11:56;16.90;99.90
28947;DHT22;16052;50.930;5.326;2023-05-10T16:14:22;16.80;99.90
28947;DHT22;16052;50.930;5.326;2023-05-10T16:16:49;16.80;99.90
28947;DHT22;16052;50.930;5.326;2023-05-10T16:19:15;16.90;99.90
28947;DHT22;16052;50.930;5.326;2023-05-10T16:21:41;16.90;99.90
28947;DHT22;16052;50.930;5.326;2023-05-10T16:24:07;16.90;99.90